sensor_id;sensor_type;location;lat;lon;timestamp;P1;durP1;ratioP1;P2;durP2;ratioP2
2544;SDS011;36212;48.838;9.142;2023-04-28T08:16:36;10.00;;;9.05;;
2544;SDS011;36212;48.838;9.142;2023-04-28T08:19:13;10.68;;;9.77;;
2544;SDS011;36212;48.838;9.142;2023-04-28T08:21:46;11.30;;;9.93;;
2544;SDS011;36212;48.838;9.142;2023-04-28T08:24:18;10.23;;;9.23;;
2544;SDS011;36212;48.838;9.142;2023-04-28T08:26:51;11.05;;;9.05;;
2544;SDS011;36212;48.838;9.142;2023-04-28T08:29:24;10.43;;;9.35;;
2544;SDS011;36212;48.838;9.142;2023-04-28T08:31:56;10.27;;;9.38;;
2544;SDS011;36212;48.838;9.142;2023-04-28T08:34:31;9.45;;;8.55;;
2544;SDS011;36212;48.838;9.142;2023-04-28T08:37:05;8.85;;;8.10;;
2544;SDS011;36212;48.838;9.142;2023-04-28T08:39:37;9.48;;;8.57;;
2544;SDS011;36212;48.838;9.142;2023-04-28T08:42:10;8.80;;;8.10;;
2544;SDS011;36212;48.838;9.142;2023-04-28T08:44:43;8.88;;;8.07;;
2544;SDS011;36212;48.838;9.142;2023-04-28T08:47:18;7.40;;;6.90;;
2544;SDS011;36212;48.838;9.142;2023-04-28T08:49:53;7.55;;;6.88;;
2544;SDS011;36212;48.838;9.142;2023-04-28T08:52:33;8.20;;;7.60;;
2544;SDS011;36212;48.838;9.142;2023-04-28T08:55:08;7.75;;;7.05;;
2544;SDS011;36212;48.838;9.142;2023-04-28T08:57:44;8.23;;;7.47;;
2544;SDS011;36212;48.838;9.142;2023-04-28T09:00:20;8.05;;;7.40;;
2544;SDS011;36212;48.838;9.142;2023-04-28T09:02:54;7.95;;;7.35;;
2544;SDS011;36212;48.838;9.142;2023-04-28T09:05:27;8.35;;;7.65;;
2544;SDS011;36212;48.838;9.142;2023-04-28T09:08:00;9.23;;;8.45;;
2544;SDS011;36212;48.838;9.142;2023-04-28T09:10:33;9.75;;;8.88;;
2544;SDS011;36212;48.838;9.142;2023-04-28T09:13:07;9.32;;;8.52;;
2544;SDS011;36212;48.838;9.142;2023-04-28T09:15:58;8.65;;;7.85;;
2544;SDS011;36212;48.838;9.142;2023-04-28T09:18:33;8.40;;;7.72;;
2544;SDS011;36212;48.838;9.142;2023-04-28T09:21:06;8.73;;;7.82;;
2544;SDS011;36212;48.838;9.142;2023-04-28T09:23:46;8.57;;;7.88;;
2544;SDS011;36212;48.838;9.142;2023-04-28T09:26:20;9.35;;;8.55;;
2544;SDS011;36212;48.838;9.142;2023-04-28T09:28:54;7.93;;;7.20;;
2544;SDS011;36212;48.838;9.142;2023-04-28T09:31:44;7.57;;;6.90;;
2544;SDS011;36212;48.838;9.142;2023-04-28T09:34:17;7.68;;;7.07;;
2544;SDS011;36212;48.838;9.142;2023-04-28T09:36:50;6.70;;;6.20;;
2544;SDS011;36212;48.838;9.142;2023-04-28T09:39:29;6.07;;;5.63;;
2544;SDS011;36212;48.838;9.142;2023-04-28T09:42:02;5.75;;;5.35;;
2544;SDS011;36212;48.838;9.142;2023-04-28T09:44:36;6.50;;;6.00;;
2544;SDS011;36212;48.838;9.142;2023-04-28T09:47:18;8.07;;;7.45;;
2544;SDS011;36212;48.838;9.142;2023-04-28T09:49:55;7.30;;;6.60;;
2544;SDS011;36212;48.838;9.142;2023-04-28T09:52:34;6.50;;;6.00;;
2544;SDS011;36212;48.838;9.142;2023-04-28T09:55:07;5.90;;;5.40;;
2544;SDS011;36212;48.838;9.142;2023-04-28T09:57:41;6.00;;;5.50;;
2544;SDS011;36212;48.838;9.142;2023-04-28T10:00:18;5.70;;;5.20;;
2544;SDS011;36212;48.838;9.142;2023-04-28T10:02:51;5.00;;;4.70;;
2544;SDS011;36212;48.838;9.142;2023-04-28T10:05:25;5.30;;;4.97;;
2544;SDS011;36212;48.838;9.142;2023-04-28T10:08:00;9.18;;;6.60;;
2544;SDS011;36212;48.838;9.142;2023-04-28T10:10:34;5.70;;;5.25;;
2544;SDS011;36212;48.838;9.142;2023-04-28T10:13:08;5.93;;;5.43;;
2544;SDS011;36212;48.838;9.142;2023-04-28T10:15:41;4.68;;;4.38;;
2544;SDS011;36212;48.838;9.142;2023-04-28T10:18:15;5.30;;;4.82;;
2544;SDS011;36212;48.838;9.142;2023-04-28T10:20:48;4.80;;;4.50;;
2544;SDS011;36212;48.838;9.142;2023-04-28T10:23:31;4.07;;;3.78;;
2544;SDS011;36212;48.838;9.142;2023-04-28T10:27:01;4.17;;;3.83;;
2544;SDS011;36212;48.838;9.142;2023-04-28T10:29:38;3.17;;;2.97;;
2544;SDS011;36212;48.838;9.142;2023-04-28T10:32:14;3.20;;;2.80;;
2544;SDS011;36212;48.838;9.142;2023-04-28T10:35:38;1.97;;;1.87;;
2544;SDS011;36212;48.838;9.142;2023-04-28T10:38:14;2.30;;;2.10;;
2544;SDS011;36212;48.838;9.142;2023-04-28T10:40:54;1.90;;;1.80;;
2544;SDS011;36212;48.838;9.142;2023-04-28T10:43:33;2.10;;;1.70;;
2544;SDS011;36212;48.838;9.142;2023-04-28T10:46:09;1.80;;;1.70;;
2544;SDS011;36212;48.838;9.142;2023-04-28T11:34:38;1.67;;;1.10;;
2544;SDS011;36212;48.838;9.142;2023-04-28T11:37:14;1.30;;;1.20;;
2544;SDS011;36212;48.838;9.142;2023-04-28T11:39:47;1.40;;;1.30;;
2544;SDS011;36212;48.838;9.142;2023-04-28T11:42:20;1.37;;;1.27;;
2544;SDS011;36212;48.838;9.142;2023-04-28T11:44:55;1.37;;;1.23;;
2544;SDS011;36212;48.838;9.142;2023-04-28T11:47:33;1.40;;;1.30;;
2544;SDS011;36212;48.838;9.142;2023-04-28T11:50:07;1.30;;;1.20;;
2544;SDS011;36212;48.838;9.142;2023-04-28T11:52:48;1.40;;;1.30;;
2544;SDS011;36212;48.838;9.142;2023-04-28T11:55:24;1.17;;;1.10;;
2544;SDS011;36212;48.838;9.142;2023-04-28T12:03:44;1.43;;;1.33;;
2544;SDS011;36212;48.838;9.142;2023-04-28T12:06:18;1.30;;;1.20;;
2544;SDS011;36212;48.838;9.142;2023-04-28T12:08:50;1.40;;;1.30;;
2544;SDS011;36212;48.838;9.142;2023-04-28T12:11:23;2.60;;;1.27;;
2544;SDS011;36212;48.838;9.142;2023-04-28T12:14:05;1.70;;;1.60;;
2544;SDS011;36212;48.838;9.142;2023-04-28T12:16:45;1.60;;;1.50;;
2544;SDS011;36212;48.838;9.142;2023-04-28T12:20:01;5.23;;;1.30;;
2544;SDS011;36212;48.838;9.142;2023-04-28T12:22:43;1.40;;;1.30;;
2544;SDS011;36212;48.838;9.142;2023-04-28T12:25:20;1.77;;;1.67;;
2544;SDS011;36212;48.838;9.142;2023-04-28T12:30:35;1.87;;;1.77;;
2544;SDS011;36212;48.838;9.142;2023-04-28T12:33:21;1.97;;;1.87;;
2544;SDS011;36212;48.838;9.142;2023-04-28T12:35:56;1.83;;;1.73;;
2544;SDS011;36212;48.838;9.142;2023-04-28T12:38:30;3.70;;;2.73;;
2544;SDS011;36212;48.838;9.142;2023-04-28T12:41:03;2.90;;;2.70;;
2544;SDS011;36212;48.838;9.142;2023-04-28T12:43:37;1.80;;;1.70;;
2544;SDS011;36212;48.838;9.142;2023-04-28T12:46:13;1.50;;;1.40;;
2544;SDS011;36212;48.838;9.142;2023-04-28T12:48:46;1.43;;;1.33;;
2544;SDS011;36212;48.838;9.142;2023-04-28T12:51:19;2.80;;;1.53;;
2544;SDS011;36212;48.838;9.142;2023-04-28T12:53:52;1.40;;;1.30;;
2544;SDS011;36212;48.838;9.142;2023-04-28T12:56:24;2.70;;;1.30;;
2544;SDS011;36212;48.838;9.142;2023-04-28T12:58:58;1.57;;;1.47;;
2544;SDS011;36212;48.838;9.142;2023-04-28T13:01:33;1.50;;;1.40;;
2544;SDS011;36212;48.838;9.142;2023-04-28T13:04:06;1.40;;;1.30;;
2544;SDS011;36212;48.838;9.142;2023-04-28T13:06:42;5.83;;;2.27;;
2544;SDS011;36212;48.838;9.142;2023-04-28T13:09:15;3.27;;;1.43;;
2544;SDS011;36212;48.838;9.142;2023-04-28T13:11:47;1.58;;;1.48;;
2544;SDS011;36212;48.838;9.142;2023-04-28T13:14:23;1.60;;;1.50;;
2544;SDS011;36212;48.838;9.142;2023-04-28T13:16:57;1.87;;;1.67;;
2544;SDS011;36212;48.838;9.142;2023-04-28T13:19:32;1.50;;;1.40;;
2544;SDS011;36212;48.838;9.142;2023-04-28T13:22:05;3.80;;;1.30;;
2544;SDS011;36212;48.838;9.142;2023-04-28T13:24:39;2.50;;;1.40;;
2544;SDS011;36212;48.838;9.142;2023-04-28T13:27:12;2.50;;;1.37;;
2544;SDS011;36212;48.838;9.142;2023-04-28T13:29:45;1.13;;;1.03;;
2544;SDS011;36212;48.838;9.142;2023-04-28T13:32:17;1.37;;;1.27;;
2544;SDS011;36212;48.838;9.142;2023-04-28T13:34:49;1.73;;;1.63;;
2544;SDS011;36212;48.838;9.142;2023-04-28T13:37:22;2.83;;;1.50;;
2544;SDS011;36212;48.838;9.142;2023-04-28T13:39:55;1.50;;;1.40;;
2544;SDS011;36212;48.838;9.142;2023-04-28T13:42:28;1.53;;;1.43;;
2544;SDS011;36212;48.838;9.142;2023-04-28T13:45:01;1.40;;;1.30;;
2544;SDS011;36212;48.838;9.142;2023-04-28T13:47:35;3.13;;;1.50;;
2544;SDS011;36212;48.838;9.142;2023-04-28T13:50:07;1.60;;;1.50;;
2544;SDS011;36212;48.838;9.142;2023-04-28T13:52:40;2.57;;;2.37;;
2544;SDS011;36212;48.838;9.142;2023-04-28T13:55:14;2.37;;;2.17;;
2544;SDS011;36212;48.838;9.142;2023-04-28T13:57:47;2.03;;;1.83;;
2544;SDS011;36212;48.838;9.142;2023-04-28T14:00:20;1.97;;;1.87;;
2544;SDS011;36212;48.838;9.142;2023-04-28T14:02:55;2.23;;;2.13;;
2544;SDS011;36212;48.838;9.142;2023-04-28T14:05:28;3.97;;;2.20;;
2544;SDS011;36212;48.838;9.142;2023-04-28T14:08:18;2.30;;;2.10;;
2544;SDS011;36212;48.838;9.142;2023-04-28T14:10:52;2.50;;;2.30;;
2544;SDS011;36212;48.838;9.142;2023-04-28T14:13:24;2.17;;;2.00;;
2544;SDS011;36212;48.838;9.142;2023-04-28T14:15:58;2.20;;;2.10;;
2544;SDS011;36212;48.838;9.142;2023-04-28T14:18:31;3.00;;;1.73;;
2544;SDS011;36212;48.838;9.142;2023-04-28T14:21:05;2.03;;;1.70;;
2544;SDS011;36212;48.838;9.142;2023-04-28T14:23:40;2.80;;;2.00;;
2544;SDS011;36212;48.838;9.142;2023-04-28T14:26:13;2.27;;;2.00;;
2544;SDS011;36212;48.838;9.142;2023-04-28T15:30:31;3.70;;;1.93;;
2544;SDS011;36212;48.838;9.142;2023-04-28T15:33:07;2.47;;;2.27;;
2544;SDS011;36212;48.838;9.142;2023-04-28T15:35:49;2.10;;;1.90;;
2544;SDS011;36212;48.838;9.142;2023-04-28T15:38:23;2.43;;;2.10;;
2544;SDS011;36212;48.838;9.142;2023-04-28T15:40:59;1.80;;;1.70;;
2544;SDS011;36212;48.838;9.142;2023-04-28T15:43:33;1.60;;;1.50;;
2544;SDS011;36212;48.838;9.142;2023-04-28T15:46:06;1.43;;;1.33;;
2544;SDS011;36212;48.838;9.142;2023-04-28T15:48:44;1.20;;;1.10;;
2544;SDS011;36212;48.838;9.142;2023-04-28T15:51:16;1.27;;;1.17;;
2544;SDS011;36212;48.838;9.142;2023-04-28T15:53:49;1.60;;;1.50;;
2544;SDS011;36212;48.838;9.142;2023-04-28T15:56:26;2.33;;;1.47;;
2544;SDS011;36212;48.838;9.142;2023-04-28T15:59:03;1.30;;;1.20;;
2544;SDS011;36212;48.838;9.142;2023-04-28T16:01:39;2.43;;;1.30;;
2544;SDS011;36212;48.838;9.142;2023-04-28T16:04:12;3.00;;;1.43;;
2544;SDS011;36212;48.838;9.142;2023-04-28T16:06:47;1.50;;;1.40;;
2544;SDS011;36212;48.838;9.142;2023-04-28T16:09:22;1.90;;;1.80;;
2544;SDS011;36212;48.838;9.142;2023-04-28T16:11:54;3.40;;;3.05;;
2544;SDS011;36212;48.838;9.142;2023-04-28T16:14:33;2.00;;;1.90;;
2544;SDS011;36212;48.838;9.142;2023-04-28T16:17:08;1.50;;;1.40;;
2544;SDS011;36212;48.838;9.142;2023-04-28T16:19:40;1.30;;;1.20;;
2544;SDS011;36212;48.838;9.142;2023-04-28T16:22:13;1.10;;;1.00;;
2544;SDS011;36212;48.838;9.142;2023-04-28T16:24:50;1.50;;;1.40;;
2544;SDS011;36212;48.838;9.142;2023-04-28T16:27:26;1.20;;;1.10;;
2544;SDS011;36212;48.838;9.142;2023-04-28T16:29:59;1.70;;;1.40;;
2544;SDS011;36212;48.838;9.142;2023-04-28T16:32:34;1.10;;;1.10;;
2544;SDS011;36212;48.838;9.142;2023-04-28T16:35:10;1.25;;;1.15;;
2544;SDS011;36212;48.838;9.142;2023-04-28T16:37:46;1.58;;;1.40;;
2544;SDS011;36212;48.838;9.142;2023-04-28T16:40:19;1.55;;;1.45;;
2544;SDS011;36212;48.838;9.142;2023-04-28T16:42:53;2.72;;;2.50;;
2544;SDS011;36212;48.838;9.142;2023-04-28T16:45:25;2.40;;;2.20;;
2544;SDS011;36212;48.838;9.142;2023-04-28T16:47:58;3.80;;;3.28;;
2544;SDS011;36212;48.838;9.142;2023-04-28T16:50:31;2.40;;;2.30;;
2544;SDS011;36212;48.838;9.142;2023-04-28T16:53:04;3.25;;;3.05;;
2544;SDS011;36212;48.838;9.142;2023-04-28T16:55:37;2.58;;;1.40;;
2544;SDS011;36212;48.838;9.142;2023-04-28T16:58:10;1.80;;;1.42;;
2544;SDS011;36212;48.838;9.142;2023-04-28T17:00:42;1.65;;;1.55;;
2544;SDS011;36212;48.838;9.142;2023-04-28T17:03:14;2.35;;;1.70;;
2544;SDS011;36212;48.838;9.142;2023-04-28T17:05:47;1.80;;;1.70;;
2544;SDS011;36212;48.838;9.142;2023-04-28T17:08:19;2.87;;;1.50;;
2544;SDS011;36212;48.838;9.142;2023-04-28T17:10:52;1.90;;;1.80;;
2544;SDS011;36212;48.838;9.142;2023-04-28T17:13:24;2.78;;;1.38;;
2544;SDS011;36212;48.838;9.142;2023-04-28T17:15:57;1.60;;;1.50;;
2544;SDS011;36212;48.838;9.142;2023-04-28T17:18:31;1.80;;;1.70;;
2544;SDS011;36212;48.838;9.142;2023-04-28T17:21:04;1.70;;;1.60;;
2544;SDS011;36212;48.838;9.142;2023-04-28T17:23:37;1.30;;;1.20;;
2544;SDS011;36212;48.838;9.142;2023-04-28T17:26:09;2.10;;;1.50;;
2544;SDS011;36212;48.838;9.142;2023-04-28T17:28:42;1.70;;;1.60;;
2544;SDS011;36212;48.838;9.142;2023-04-28T17:31:14;1.60;;;1.50;;
2544;SDS011;36212;48.838;9.142;2023-04-28T17:33:50;1.70;;;1.60;;
2544;SDS011;36212;48.838;9.142;2023-04-28T17:36:24;3.75;;;1.70;;
2544;SDS011;36212;48.838;9.142;2023-04-28T17:38:58;3.08;;;2.50;;
2544;SDS011;36212;48.838;9.142;2023-04-28T17:41:31;2.33;;;2.13;;
2544;SDS011;36212;48.838;9.142;2023-04-28T17:44:03;2.60;;;2.40;;
2544;SDS011;36212;48.838;9.142;2023-04-28T17:46:36;2.38;;;2.13;;
2544;SDS011;36212;48.838;9.142;2023-04-28T17:49:09;1.80;;;1.70;;
2544;SDS011;36212;48.838;9.142;2023-04-28T17:51:41;2.08;;;1.60;;
2544;SDS011;36212;48.838;9.142;2023-04-28T17:54:13;1.80;;;1.70;;
2544;SDS011;36212;48.838;9.142;2023-04-28T17:56:46;1.70;;;1.60;;
2544;SDS011;36212;48.838;9.142;2023-04-28T17:59:19;1.77;;;1.67;;
2544;SDS011;36212;48.838;9.142;2023-04-28T18:01:52;1.50;;;1.40;;
2544;SDS011;36212;48.838;9.142;2023-04-28T18:04:28;2.40;;;1.60;;
2544;SDS011;36212;48.838;9.142;2023-04-28T18:07:00;2.53;;;1.90;;
2544;SDS011;36212;48.838;9.142;2023-04-28T18:09:33;3.50;;;1.63;;
2544;SDS011;36212;48.838;9.142;2023-04-28T18:12:05;2.08;;;1.98;;
2544;SDS011;36212;48.838;9.142;2023-04-28T18:14:38;2.13;;;1.85;;
2544;SDS011;36212;48.838;9.142;2023-04-28T18:17:14;4.78;;;2.42;;
2544;SDS011;36212;48.838;9.142;2023-04-28T18:19:48;4.65;;;2.13;;
2544;SDS011;36212;48.838;9.142;2023-04-28T18:22:25;4.05;;;2.35;;
2544;SDS011;36212;48.838;9.142;2023-04-28T18:24:58;3.15;;;1.90;;
2544;SDS011;36212;48.838;9.142;2023-04-28T18:27:32;2.00;;;1.90;;
2544;SDS011;36212;48.838;9.142;2023-04-28T18:30:05;3.42;;;2.28;;
2544;SDS011;36212;48.838;9.142;2023-04-28T18:32:39;2.75;;;2.55;;
2544;SDS011;36212;48.838;9.142;2023-04-28T18:35:12;2.55;;;2.28;;
2544;SDS011;36212;48.838;9.142;2023-04-28T18:37:47;3.95;;;2.28;;
2544;SDS011;36212;48.838;9.142;2023-04-28T18:40:21;2.00;;;1.90;;
2544;SDS011;36212;48.838;9.142;2023-04-28T18:42:54;2.00;;;1.90;;
2544;SDS011;36212;48.838;9.142;2023-04-28T18:45:28;2.60;;;2.40;;
2544;SDS011;36212;48.838;9.142;2023-04-28T18:48:05;2.55;;;2.20;;
2544;SDS011;36212;48.838;9.142;2023-04-28T18:50:40;2.33;;;1.90;;
2544;SDS011;36212;48.838;9.142;2023-04-28T18:53:14;2.60;;;2.40;;
2544;SDS011;36212;48.838;9.142;2023-04-28T18:55:47;11.73;;;2.80;;
2544;SDS011;36212;48.838;9.142;2023-04-28T18:58:24;3.53;;;2.60;;
2544;SDS011;36212;48.838;9.142;2023-04-28T19:00:58;4.13;;;2.60;;
2544;SDS011;36212;48.838;9.142;2023-04-28T19:03:32;2.38;;;2.25;;
2544;SDS011;36212;48.838;9.142;2023-04-28T19:06:06;3.28;;;2.97;;
2544;SDS011;36212;48.838;9.142;2023-04-28T19:08:40;4.38;;;2.78;;
2544;SDS011;36212;48.838;9.142;2023-04-28T19:11:14;3.40;;;2.90;;
2544;SDS011;36212;48.838;9.142;2023-04-28T19:13:48;2.85;;;2.63;;
2544;SDS011;36212;48.838;9.142;2023-04-28T19:16:21;2.83;;;2.63;;
2544;SDS011;36212;48.838;9.142;2023-04-28T19:18:54;2.20;;;2.10;;
2544;SDS011;36212;48.838;9.142;2023-04-28T19:21:27;3.45;;;3.15;;
2544;SDS011;36212;48.838;9.142;2023-04-28T19:24:11;3.47;;;3.22;;
2544;SDS011;36212;48.838;9.142;2023-04-28T19:26:45;3.17;;;2.97;;
2544;SDS011;36212;48.838;9.142;2023-04-28T19:29:18;2.80;;;2.70;;
2544;SDS011;36212;48.838;9.142;2023-04-28T19:31:52;2.85;;;2.65;;
2544;SDS011;36212;48.838;9.142;2023-04-28T19:34:25;2.70;;;2.50;;
2544;SDS011;36212;48.838;9.142;2023-04-28T19:37:00;2.85;;;2.58;;
2544;SDS011;36212;48.838;9.142;2023-04-28T19:39:39;2.33;;;2.17;;
2544;SDS011;36212;48.838;9.142;2023-04-28T19:42:13;2.40;;;2.30;;
2544;SDS011;36212;48.838;9.142;2023-04-28T19:44:51;2.58;;;2.45;;
2544;SDS011;36212;48.838;9.142;2023-04-28T19:47:29;2.70;;;2.60;;
2544;SDS011;36212;48.838;9.142;2023-04-28T19:50:06;3.42;;;3.20;;
2544;SDS011;36212;48.838;9.142;2023-04-28T19:52:41;2.47;;;2.38;;
2544;SDS011;36212;48.838;9.142;2023-04-28T19:55:16;3.38;;;3.10;;
2544;SDS011;36212;48.838;9.142;2023-04-28T19:57:52;3.08;;;2.88;;
2544;SDS011;36212;48.838;9.142;2023-04-28T20:00:30;4.10;;;3.00;;
2544;SDS011;36212;48.838;9.142;2023-04-28T20:03:03;2.88;;;2.72;;
2544;SDS011;36212;48.838;9.142;2023-04-28T20:05:37;3.20;;;3.00;;
2544;SDS011;36212;48.838;9.142;2023-04-28T20:08:11;3.35;;;2.90;;
2544;SDS011;36212;48.838;9.142;2023-04-28T20:10:46;3.05;;;2.90;;
2544;SDS011;36212;48.838;9.142;2023-04-28T20:13:20;2.58;;;2.47;;
2544;SDS011;36212;48.838;9.142;2023-04-28T20:15:53;2.95;;;2.78;;
2544;SDS011;36212;48.838;9.142;2023-04-28T20:18:26;4.32;;;2.90;;
2544;SDS011;36212;48.838;9.142;2023-04-28T20:21:00;2.50;;;2.40;;
2544;SDS011;36212;48.838;9.142;2023-04-28T20:23:34;2.72;;;2.63;;
2544;SDS011;36212;48.838;9.142;2023-04-28T20:26:14;2.95;;;2.75;;
2544;SDS011;36212;48.838;9.142;2023-04-28T20:28:48;3.15;;;2.95;;
2544;SDS011;36212;48.838;9.142;2023-04-28T20:31:24;3.85;;;3.55;;
2544;SDS011;36212;48.838;9.142;2023-04-28T20:33:58;3.33;;;3.13;;
2544;SDS011;36212;48.838;9.142;2023-04-28T20:36:33;6.25;;;3.25;;
2544;SDS011;36212;48.838;9.142;2023-04-28T20:39:08;3.72;;;3.42;;
2544;SDS011;36212;48.838;9.142;2023-04-28T20:41:42;3.35;;;3.22;;
2544;SDS011;36212;48.838;9.142;2023-04-28T20:44:15;3.10;;;2.90;;
2544;SDS011;36212;48.838;9.142;2023-04-28T20:46:48;2.50;;;2.40;;
2544;SDS011;36212;48.838;9.142;2023-04-28T20:49:21;2.63;;;2.53;;
2544;SDS011;36212;48.838;9.142;2023-04-28T20:52:02;2.67;;;2.58;;
2544;SDS011;36212;48.838;9.142;2023-04-28T20:54:36;3.33;;;3.13;;
2544;SDS011;36212;48.838;9.142;2023-04-28T20:57:09;2.78;;;2.58;;
2544;SDS011;36212;48.838;9.142;2023-04-28T20:59:43;3.63;;;3.42;;
2544;SDS011;36212;48.838;9.142;2023-04-28T21:02:16;2.55;;;2.45;;
2544;SDS011;36212;48.838;9.142;2023-04-28T21:04:48;3.33;;;3.20;;
2544;SDS011;36212;48.838;9.142;2023-04-28T21:07:21;3.10;;;3.00;;
2544;SDS011;36212;48.838;9.142;2023-04-28T21:09:53;2.90;;;2.70;;
2544;SDS011;36212;48.838;9.142;2023-04-28T21:12:27;2.80;;;2.60;;
2544;SDS011;36212;48.838;9.142;2023-04-28T21:14:59;2.83;;;2.63;;
2544;SDS011;36212;48.838;9.142;2023-04-28T21:17:34;2.97;;;2.78;;
2544;SDS011;36212;48.838;9.142;2023-04-28T21:20:06;2.70;;;2.50;;
2544;SDS011;36212;48.838;9.142;2023-04-28T21:22:39;2.90;;;2.80;;
2544;SDS011;36212;48.838;9.142;2023-04-28T21:25:12;2.67;;;2.50;;
2544;SDS011;36212;48.838;9.142;2023-04-28T21:27:44;2.88;;;2.67;;
2544;SDS011;36212;48.838;9.142;2023-04-28T21:30:16;2.78;;;2.67;;
2544;SDS011;36212;48.838;9.142;2023-04-28T21:32:51;2.53;;;2.42;;
2544;SDS011;36212;48.838;9.142;2023-04-28T21:35:24;2.92;;;2.83;;
2544;SDS011;36212;48.838;9.142;2023-04-28T21:37:57;2.95;;;2.75;;
2544;SDS011;36212;48.838;9.142;2023-04-28T21:40:30;2.90;;;2.70;;
2544;SDS011;36212;48.838;9.142;2023-04-28T21:43:02;2.60;;;2.50;;
2544;SDS011;36212;48.838;9.142;2023-04-28T21:45:35;2.90;;;2.70;;
2544;SDS011;36212;48.838;9.142;2023-04-28T21:48:07;3.00;;;2.80;;
2544;SDS011;36212;48.838;9.142;2023-04-28T21:50:40;3.13;;;3.03;;
2544;SDS011;36212;48.838;9.142;2023-04-28T21:53:12;3.63;;;3.22;;
2544;SDS011;36212;48.838;9.142;2023-04-28T21:55:44;2.80;;;2.70;;
2544;SDS011;36212;48.838;9.142;2023-04-28T21:58:18;2.83;;;2.63;;
2544;SDS011;36212;48.838;9.142;2023-04-28T22:00:50;2.90;;;2.80;;
2544;SDS011;36212;48.838;9.142;2023-04-28T22:03:25;3.25;;;3.00;;
2544;SDS011;36212;48.838;9.142;2023-04-28T22:05:59;2.80;;;2.70;;
2544;SDS011;36212;48.838;9.142;2023-04-28T22:08:32;2.90;;;2.80;;
2544;SDS011;36212;48.838;9.142;2023-04-28T22:11:05;2.90;;;2.80;;
2544;SDS011;36212;48.838;9.142;2023-04-28T22:13:37;3.05;;;2.85;;
2544;SDS011;36212;48.838;9.142;2023-04-28T22:16:10;2.65;;;2.55;;
2544;SDS011;36212;48.838;9.142;2023-04-28T22:18:44;3.20;;;3.10;;
2544;SDS011;36212;48.838;9.142;2023-04-28T22:21:16;2.70;;;2.60;;
2544;SDS011;36212;48.838;9.142;2023-04-28T22:23:50;2.88;;;2.63;;
2544;SDS011;36212;48.838;9.142;2023-04-28T22:26:22;3.20;;;3.00;;
2544;SDS011;36212;48.838;9.142;2023-04-28T22:28:56;2.70;;;2.50;;
2544;SDS011;36212;48.838;9.142;2023-04-28T22:31:28;4.32;;;2.88;;
2544;SDS011;36212;48.838;9.142;2023-04-28T22:34:00;3.40;;;3.13;;
2544;SDS011;36212;48.838;9.142;2023-04-28T22:36:35;2.60;;;2.50;;
2544;SDS011;36212;48.838;9.142;2023-04-28T22:39:08;3.08;;;2.78;;
2544;SDS011;36212;48.838;9.142;2023-04-28T22:41:40;3.55;;;3.35;;
2544;SDS011;36212;48.838;9.142;2023-04-28T22:44:12;3.40;;;3.10;;
2544;SDS011;36212;48.838;9.142;2023-04-28T22:46:45;5.78;;;2.95;;
2544;SDS011;36212;48.838;9.142;2023-04-28T22:49:17;3.33;;;3.13;;
2544;SDS011;36212;48.838;9.142;2023-04-28T22:51:57;3.30;;;3.10;;
2544;SDS011;36212;48.838;9.142;2023-04-28T22:54:30;3.35;;;3.15;;
2544;SDS011;36212;48.838;9.142;2023-04-28T22:57:03;3.10;;;2.90;;
2544;SDS011;36212;48.838;9.142;2023-04-28T22:59:36;3.30;;;3.10;;
2544;SDS011;36212;48.838;9.142;2023-04-28T23:02:09;2.95;;;2.67;;
2544;SDS011;36212;48.838;9.142;2023-04-28T23:04:43;2.90;;;2.70;;
2544;SDS011;36212;48.838;9.142;2023-04-28T23:07:16;3.20;;;3.00;;
2544;SDS011;36212;48.838;9.142;2023-04-28T23:09:48;2.60;;;2.40;;
2544;SDS011;36212;48.838;9.142;2023-04-28T23:12:21;2.90;;;2.70;;
2544;SDS011;36212;48.838;9.142;2023-04-28T23:14:53;2.60;;;2.40;;
2544;SDS011;36212;48.838;9.142;2023-04-28T23:17:26;2.80;;;2.70;;
2544;SDS011;36212;48.838;9.142;2023-04-28T23:19:58;3.03;;;2.83;;
2544;SDS011;36212;48.838;9.142;2023-04-28T23:22:30;2.90;;;2.80;;
2544;SDS011;36212;48.838;9.142;2023-04-28T23:25:02;2.95;;;2.85;;
2544;SDS011;36212;48.838;9.142;2023-04-28T23:27:35;2.70;;;2.60;;
2544;SDS011;36212;48.838;9.142;2023-04-28T23:30:07;2.53;;;2.42;;
2544;SDS011;36212;48.838;9.142;2023-04-28T23:32:41;4.90;;;2.90;;
2544;SDS011;36212;48.838;9.142;2023-04-28T23:35:14;2.83;;;2.72;;
2544;SDS011;36212;48.838;9.142;2023-04-28T23:37:46;2.78;;;2.63;;
2544;SDS011;36212;48.838;9.142;2023-04-28T23:40:18;2.40;;;2.30;;
2544;SDS011;36212;48.838;9.142;2023-04-28T23:42:51;2.90;;;2.80;;
2544;SDS011;36212;48.838;9.142;2023-04-28T23:45:23;3.28;;;3.10;;
2544;SDS011;36212;48.838;9.142;2023-04-28T23:47:56;2.90;;;2.70;;
2544;SDS011;36212;48.838;9.142;2023-04-28T23:50:28;3.17;;;2.97;;
2544;SDS011;36212;48.838;9.142;2023-04-28T23:53:00;3.30;;;2.92;;
2544;SDS011;36212;48.838;9.142;2023-04-28T23:55:32;3.33;;;2.88;;
2544;SDS011;36212;48.838;9.142;2023-04-28T23:58:05;3.22;;;3.03;;
